Station Historical Data
Daily Summary for July 4, 2012 Units:  Both    English   Metric
« Previous Day
Next Day »
Daily Weekly Monthly Yearly Custom
  High: Low: Average:
Temperature: 98.8 °F /  37.1 °C 71.7 °F /  22.1 °C 83.9 °F /  28.8 °C
Dew Point: 72.5 °F /  22.5 °C 64.0 °F /  17.8 °C 68.6 °F /  20.3 °C
Humidity: 90% 33% 63%
Wind Speed: 12.0mph /  19.3km/h - 2.9mph /  4.7km/h
Wind Gust: 17.0mph /  27.4km/h - -
Wind- - SW
Pressure: 29.99 in /  1015.5 hPa 29.85 in /  1010.7 hPa -
Precipitation: 0.00 in /  0 mm    
Historical Graphs
 
 
Tabular Data for July 4, 2012
Time Temperature Dew Point Pressure Wind Wind Speed Wind Gust Humidity Rainfall Rate (Hourly) Conditions
00:00 79.0 °F /  26.1 °C 68.4 °F /  20.2 °C 29.91in /  1012.8hPa Calm   1.0mph /  1.6km/h 70% 0.00in /  0mm
00:02 79.0 °F /  26.1 °C 68.4 °F /  20.2 °C 29.91in /  1012.8hPa Calm     70% 0.00in /  0mm
00:07 79.0 °F /  26.1 °C 68.4 °F /  20.2 °C 29.91in /  1012.8hPa Calm     70% 0.00in /  0mm
00:12 78.8 °F /  26 °C 69.0 °F /  20.6 °C 29.91in /  1012.8hPa Calm     72% 0.00in /  0mm
00:17 78.3 °F /  25.7 °C 68.9 °F /  20.5 °C 29.91in /  1012.8hPa North 1.0mph /  1.6km/h 1.0mph /  1.6km/h 73% 0.00in /  0mm
00:22 77.7 °F /  25.4 °C 68.8 °F /  20.4 °C 29.92in /  1013.1hPa East 1.0mph /  1.6km/h 1.0mph /  1.6km/h 74% 0.00in /  0mm
00:27 77.8 °F /  25.4 °C 68.5 °F /  20.3 °C 29.92in /  1013.1hPa ESE 1.0mph /  1.6km/h 1.0mph /  1.6km/h 73% 0.00in /  0mm
00:33 78.3 °F /  25.7 °C 68.5 °F /  20.3 °C 29.92in /  1013.1hPa Calm     72% 0.00in /  0mm
00:38 78.2 °F /  25.7 °C 68.8 °F /  20.4 °C 29.92in /  1013.1hPa Calm     73% 0.00in /  0mm
00:43 77.8 °F /  25.4 °C 68.9 °F /  20.5 °C 29.92in /  1013.1hPa Calm     74% 0.00in /  0mm
00:48 77.4 °F /  25.2 °C 68.9 °F /  20.5 °C 29.92in /  1013.1hPa Calm     75% 0.00in /  0mm
00:53 77.0 °F /  25 °C 69.2 °F /  20.7 °C 29.91in /  1012.8hPa Calm     77% 0.00in /  0mm
00:57 76.7 °F /  24.8 °C 69.3 °F /  20.7 °C 29.91in /  1012.8hPa Calm     78% 0.00in /  0mm
01:02 76.6 °F /  24.8 °C 69.6 °F /  20.9 °C 29.91in /  1012.8hPa Calm   1.0mph /  1.6km/h 79% 0.00in /  0mm
01:08 76.1 °F /  24.5 °C 69.8 °F /  21 °C 29.91in /  1012.8hPa Calm     81% 0.00in /  0mm
01:13 75.8 °F /  24.3 °C 69.6 °F /  20.9 °C 29.92in /  1013.1hPa Calm     81% 0.00in /  0mm
01:18 75.9 °F /  24.4 °C 69.7 °F /  20.9 °C 29.92in /  1013.1hPa Calm     81% 0.00in /  0mm
01:23 76.1 °F /  24.5 °C 69.8 °F /  21 °C 29.92in /  1013.1hPa Calm     81% 0.00in /  0mm
01:28 76.2 °F /  24.6 °C 70.3 °F /  21.3 °C 29.91in /  1012.8hPa Calm     82% 0.00in /  0mm
01:33 76.3 °F /  24.6 °C 69.7 °F /  20.9 °C 29.91in /  1012.8hPa ESE 1.0mph /  1.6km/h 1.0mph /  1.6km/h 80% 0.00in /  0mm
01:38 76.6 °F /  24.8 °C 69.2 °F /  20.7 °C 29.91in /  1012.8hPa ESE 2.0mph /  3.2km/h 2.0mph /  3.2km/h 78% 0.00in /  0mm
01:43 76.7 °F /  24.8 °C 68.9 °F /  20.5 °C 29.91in /  1012.8hPa ESE 2.0mph /  3.2km/h 2.0mph /  3.2km/h 77% 0.00in /  0mm
01:48 77.1 °F /  25.1 °C 68.6 °F /  20.3 °C 29.91in /  1012.8hPa East 1.0mph /  1.6km/h 2.0mph /  3.2km/h 75% 0.00in /  0mm
01:53 77.2 °F /  25.1 °C 69.1 °F /  20.6 °C 29.91in /  1012.8hPa East 1.0mph /  1.6km/h 1.0mph /  1.6km/h 76% 0.00in /  0mm
01:58 76.4 °F /  24.7 °C 69.0 °F /  20.6 °C 29.91in /  1012.8hPa Calm     78% 0.00in /  0mm
02:03 75.9 °F /  24.4 °C 68.9 °F /  20.5 °C 29.91in /  1012.8hPa Calm     79% 0.00in /  0mm
02:08 75.6 °F /  24.2 °C 68.6 °F /  20.3 °C 29.91in /  1012.8hPa Calm     79% 0.00in /  0mm
02:13 75.2 °F /  24 °C 68.6 °F /  20.3 °C 29.91in /  1012.8hPa Calm     80% 0.00in /  0mm
02:18 75.1 °F /  23.9 °C 69.2 °F /  20.7 °C 29.91in /  1012.8hPa NE 1.0mph /  1.6km/h 1.0mph /  1.6km/h 82% 0.00in /  0mm
02:23 74.8 °F /  23.8 °C 69.3 °F /  20.7 °C 29.91in /  1012.8hPa Calm   1.0mph /  1.6km/h 83% 0.00in /  0mm
02:28 74.6 °F /  23.7 °C 69.1 °F /  20.6 °C 29.90in /  1012.4hPa Calm   1.0mph /  1.6km/h 83% 0.00in /  0mm
02:33 74.5 °F /  23.6 °C 69.0 °F /  20.6 °C 29.91in /  1012.8hPa NE 1.0mph /  1.6km/h 1.0mph /  1.6km/h 83% 0.00in /  0mm
02:38 74.3 °F /  23.5 °C 69.2 °F /  20.7 °C 29.90in /  1012.4hPa Calm   1.0mph /  1.6km/h 84% 0.00in /  0mm
02:43 74.0 °F /  23.3 °C 69.2 °F /  20.7 °C 29.90in /  1012.4hPa Calm     85% 0.00in /  0mm
02:48 73.8 °F /  23.2 °C 69.0 °F /  20.6 °C 29.90in /  1012.4hPa Calm   1.0mph /  1.6km/h 85% 0.00in /  0mm
02:53 73.8 °F /  23.2 °C 68.7 °F /  20.4 °C 29.90in /  1012.4hPa Calm     84% 0.00in /  0mm
02:58 73.7 °F /  23.2 °C 68.6 °F /  20.3 °C 29.90in /  1012.4hPa Calm     84% 0.00in /  0mm
03:03 73.7 °F /  23.2 °C 68.9 °F /  20.5 °C 29.90in /  1012.4hPa NE 1.0mph /  1.6km/h 1.0mph /  1.6km/h 85% 0.00in /  0mm
03:08 73.5 °F /  23.1 °C 69.1 °F /  20.6 °C 29.90in /  1012.4hPa NE 1.0mph /  1.6km/h 1.0mph /  1.6km/h 86% 0.00in /  0mm
03:13 73.3 °F /  22.9 °C 69.2 °F /  20.7 °C 29.90in /  1012.4hPa Calm   1.0mph /  1.6km/h 87% 0.00in /  0mm
03:18 73.3 °F /  22.9 °C 68.9 °F /  20.5 °C 29.90in /  1012.4hPa Calm     86% 0.00in /  0mm
03:23 73.2 °F /  22.9 °C 69.1 °F /  20.6 °C 29.90in /  1012.4hPa Calm     87% 0.00in /  0mm
03:28 73.1 °F /  22.8 °C 68.7 °F /  20.4 °C 29.90in /  1012.4hPa Calm     86% 0.00in /  0mm
03:33 72.9 °F /  22.7 °C 68.8 °F /  20.4 °C 29.90in /  1012.4hPa Calm     87% 0.00in /  0mm
03:38 72.7 °F /  22.6 °C 68.6 °F /  20.3 °C 29.90in /  1012.4hPa Calm   1.0mph /  1.6km/h 87% 0.00in /  0mm
03:43 72.8 °F /  22.7 °C 68.7 °F /  20.4 °C 29.90in /  1012.4hPa Calm     87% 0.00in /  0mm
03:48 73.2 °F /  22.9 °C 68.8 °F /  20.4 °C 29.91in /  1012.8hPa NE 1.0mph /  1.6km/h 1.0mph /  1.6km/h 86% 0.00in /  0mm
03:53 73.3 °F /  22.9 °C 68.9 °F /  20.5 °C 29.91in /  1012.8hPa Calm   1.0mph /  1.6km/h 86% 0.00in /  0mm
03:58 73.4 °F /  23 °C 69.0 °F /  20.6 °C 29.91in /  1012.8hPa Calm     86% 0.00in /  0mm
04:03 73.3 °F /  22.9 °C 68.9 °F /  20.5 °C 29.91in /  1012.8hPa Calm     86% 0.00in /  0mm
04:08 73.0 °F /  22.8 °C 68.6 °F /  20.3 °C 29.91in /  1012.8hPa Calm     86% 0.00in /  0mm
04:13 72.7 °F /  22.6 °C 68.6 °F /  20.3 °C 29.91in /  1012.8hPa Calm     87% 0.00in /  0mm
04:18 72.5 °F /  22.5 °C 68.8 °F /  20.4 °C 29.91in /  1012.8hPa Calm     88% 0.00in /  0mm
04:23 72.2 °F /  22.3 °C 68.8 °F /  20.4 °C 29.91in /  1012.8hPa Calm     89% 0.00in /  0mm
04:28 72.0 °F /  22.2 °C 68.6 °F /  20.3 °C 29.91in /  1012.8hPa Calm     89% 0.00in /  0mm
04:33 71.9 °F /  22.2 °C 68.8 °F /  20.4 °C 29.91in /  1012.8hPa Calm     90% 0.00in /  0mm
04:38 72.0 °F /  22.2 °C 68.9 °F /  20.5 °C 29.91in /  1012.8hPa Calm     90% 0.00in /  0mm
04:43 72.0 °F /  22.2 °C 68.9 °F /  20.5 °C 29.91in /  1012.8hPa Calm     90% 0.00in /  0mm
04:48 72.2 °F /  22.3 °C 68.8 °F /  20.4 °C 29.91in /  1012.8hPa Calm     89% 0.00in /  0mm
04:53 72.1 °F /  22.3 °C 68.3 °F /  20.2 °C 29.91in /  1012.8hPa Calm     88% 0.00in /  0mm
04:58 72.0 °F /  22.2 °C 68.6 °F /  20.3 °C 29.91in /  1012.8hPa Calm     89% 0.00in /  0mm
05:04 71.9 °F /  22.2 °C 68.8 °F /  20.4 °C 29.91in /  1012.8hPa Calm     90% 0.00in /  0mm
05:09 71.7 °F /  22.1 °C 68.3 °F /  20.2 °C 29.92in /  1013.1hPa Calm     89% 0.00in /  0mm
05:14 71.9 °F /  22.2 °C 68.5 °F /  20.3 °C 29.92in /  1013.1hPa Calm     89% 0.00in /  0mm
05:19 72.3 °F /  22.4 °C 68.6 °F /  20.3 °C 29.92in /  1013.1hPa East 7.0mph /  11.3km/h 7.0mph /  11.3km/h 88% 0.00in /  0mm
05:24 72.1 °F /  22.3 °C 68.3 °F /  20.2 °C 29.92in /  1013.1hPa SE 3.0mph /  4.8km/h 6.0mph /  9.7km/h 88% 0.00in /  0mm
05:29 72.2 °F /  22.3 °C 68.4 °F /  20.2 °C 29.92in /  1013.1hPa ESE 2.0mph /  3.2km/h 2.0mph /  3.2km/h 88% 0.00in /  0mm
05:34 72.2 °F /  22.3 °C 68.4 °F /  20.2 °C 29.92in /  1013.1hPa ESE 2.0mph /  3.2km/h 3.0mph /  4.8km/h 88% 0.00in /  0mm
05:39 72.0 °F /  22.2 °C 68.3 °F /  20.2 °C 29.93in /  1013.4hPa Calm   2.0mph /  3.2km/h 88% 0.00in /  0mm
05:44 72.0 °F /  22.2 °C 68.3 °F /  20.2 °C 29.93in /  1013.4hPa Calm   1.0mph /  1.6km/h 88% 0.00in /  0mm
05:49 72.0 °F /  22.2 °C 68.3 °F /  20.2 °C 29.93in /  1013.4hPa SE 1.0mph /  1.6km/h 1.0mph /  1.6km/h 88% 0.00in /  0mm
05:54 71.9 °F /  22.2 °C 68.2 °F /  20.1 °C 29.93in /  1013.4hPa Calm     88% 0.00in /  0mm
05:59 72.0 °F /  22.2 °C 68.3 °F /  20.2 °C 29.93in /  1013.4hPa Calm   1.0mph /  1.6km/h 88% 0.00in /  0mm
06:04 72.2 °F /  22.3 °C 68.1 °F /  20.1 °C 29.93in /  1013.4hPa Calm   1.0mph /  1.6km/h 87% 0.00in /  0mm
06:09 72.4 °F /  22.4 °C 68.3 °F /  20.2 °C 29.93in /  1013.4hPa ESE 1.0mph /  1.6km/h 1.0mph /  1.6km/h 87% 0.00in /  0mm
06:14 72.7 °F /  22.6 °C 68.3 °F /  20.2 °C 29.93in /  1013.4hPa SE 1.0mph /  1.6km/h 2.0mph /  3.2km/h 86% 0.00in /  0mm
06:19 72.7 °F /  22.6 °C 68.3 °F /  20.2 °C 29.94in /  1013.8hPa Calm   1.0mph /  1.6km/h 86% 0.00in /  0mm
06:24 72.3 °F /  22.4 °C 67.9 °F /  19.9 °C 29.94in /  1013.8hPa Calm     86% 0.00in /  0mm
06:29 72.0 °F /  22.2 °C 67.9 °F /  19.9 °C 29.94in /  1013.8hPa Calm     87% 0.00in /  0mm
06:34 71.9 °F /  22.2 °C 67.8 °F /  19.9 °C 29.94in /  1013.8hPa Calm     87% 0.00in /  0mm
06:39 71.7 °F /  22.1 °C 68.0 °F /  20 °C 29.94in /  1013.8hPa Calm     88% 0.00in /  0mm
06:44 71.9 °F /  22.2 °C 68.2 °F /  20.1 °C 29.94in /  1013.8hPa ESE 1.0mph /  1.6km/h 1.0mph /  1.6km/h 88% 0.00in /  0mm
06:49 71.9 °F /  22.2 °C 67.8 °F /  19.9 °C 29.94in /  1013.8hPa Calm   1.0mph /  1.6km/h 87% 0.00in /  0mm
06:54 72.0 °F /  22.2 °C 67.9 °F /  19.9 °C 29.94in /  1013.8hPa Calm   2.0mph /  3.2km/h 87% 0.00in /  0mm
06:59 71.8 °F /  22.1 °C 67.7 °F /  19.8 °C 29.94in /  1013.8hPa ENE 1.0mph /  1.6km/h 1.0mph /  1.6km/h 87% 0.00in /  0mm
07:04 71.8 °F /  22.1 °C 68.1 °F /  20.1 °C 29.95in /  1014.1hPa Calm   1.0mph /  1.6km/h 88% 0.00in /  0mm
07:09 71.8 °F /  22.1 °C 68.1 °F /  20.1 °C 29.95in /  1014.1hPa Calm     88% 0.00in /  0mm
07:14 71.8 °F /  22.1 °C 68.1 °F /  20.1 °C 29.95in /  1014.1hPa Calm     88% 0.00in /  0mm
07:19 71.7 °F /  22.1 °C 68.0 °F /  20 °C 29.95in /  1014.1hPa Calm     88% 0.00in /  0mm
07:24 71.8 °F /  22.1 °C 68.4 °F /  20.2 °C 29.95in /  1014.1hPa Calm     89% 0.00in /  0mm
07:29 72.1 °F /  22.3 °C 68.3 °F /  20.2 °C 29.95in /  1014.1hPa Calm     88% 0.00in /  0mm
07:34 72.6 °F /  22.6 °C 68.8 °F /  20.4 °C 29.95in /  1014.1hPa Calm     88% 0.00in /  0mm
07:39 73.3 °F /  22.9 °C 69.5 °F /  20.8 °C 29.96in /  1014.4hPa Calm     88% 0.00in /  0mm
07:44 73.8 °F /  23.2 °C 69.3 °F /  20.7 °C 29.96in /  1014.4hPa Calm     86% 0.00in /  0mm
07:49 74.7 °F /  23.7 °C 69.9 °F /  21.1 °C 29.96in /  1014.4hPa Calm     85% 0.00in /  0mm
07:54 75.8 °F /  24.3 °C 71.0 °F /  21.7 °C 29.96in /  1014.4hPa Calm     85% 0.00in /  0mm
07:59 76.3 °F /  24.6 °C 71.1 °F /  21.7 °C 29.96in /  1014.4hPa Calm     84% 0.00in /  0mm
08:04 76.3 °F /  24.6 °C 71.5 °F /  21.9 °C 29.96in /  1014.4hPa Calm     85% 0.00in /  0mm
08:09 76.4 °F /  24.7 °C 71.6 °F /  22 °C 29.97in /  1014.8hPa Calm     85% 0.00in /  0mm
08:14 77.0 °F /  25 °C 71.8 °F /  22.1 °C 29.97in /  1014.8hPa Calm     84% 0.00in /  0mm
08:19 78.0 °F /  25.6 °C 71.7 °F /  22.1 °C 29.97in /  1014.8hPa Calm     81% 0.00in /  0mm
08:24 79.2 °F /  26.2 °C 72.1 °F /  22.3 °C 29.97in /  1014.8hPa Calm     79% 0.00in /  0mm
08:29 80.2 °F /  26.8 °C 72.3 °F /  22.4 °C 29.97in /  1014.8hPa Calm     77% 0.00in /  0mm
08:34 80.8 °F /  27.1 °C 72.5 °F /  22.5 °C 29.97in /  1014.8hPa Calm     76% 0.00in /  0mm
08:39 81.4 °F /  27.4 °C 71.5 °F /  21.9 °C 29.98in /  1015.1hPa SSW 1.0mph /  1.6km/h 2.0mph /  3.2km/h 72% 0.00in /  0mm
08:44 81.3 °F /  27.4 °C 72.2 °F /  22.3 °C 29.98in /  1015.1hPa SSW 1.0mph /  1.6km/h 3.0mph /  4.8km/h 74% 0.00in /  0mm
08:49 81.2 °F /  27.3 °C 70.9 °F /  21.6 °C 29.98in /  1015.1hPa SW 2.0mph /  3.2km/h 4.0mph /  6.4km/h 71% 0.00in /  0mm
08:54 81.3 °F /  27.4 °C 71.8 °F /  22.1 °C 29.98in /  1015.1hPa SW 2.0mph /  3.2km/h 4.0mph /  6.4km/h 73% 0.00in /  0mm
09:00 81.4 °F /  27.4 °C 71.1 °F /  21.7 °C 29.98in /  1015.1hPa SW 4.0mph /  6.4km/h 5.0mph /  8km/h 71% 0.00in /  0mm
09:05 81.4 °F /  27.4 °C 70.7 °F /  21.5 °C 29.98in /  1015.1hPa SW 4.0mph /  6.4km/h 5.0mph /  8km/h 70% 0.00in /  0mm
09:10 81.5 °F /  27.5 °C 71.2 °F /  21.8 °C 29.98in /  1015.1hPa SW 3.0mph /  4.8km/h 5.0mph /  8km/h 71% 0.00in /  0mm
09:15 82.0 °F /  27.8 °C 72.1 °F /  22.3 °C 29.98in /  1015.1hPa Calm   4.0mph /  6.4km/h 72% 0.00in /  0mm
09:20 82.5 °F /  28.1 °C 71.3 °F /  21.8 °C 29.98in /  1015.1hPa WSW 1.0mph /  1.6km/h 3.0mph /  4.8km/h 69% 0.00in /  0mm
09:25 82.7 °F /  28.2 °C 71.5 °F /  21.9 °C 29.98in /  1015.1hPa WSW 2.0mph /  3.2km/h 3.0mph /  4.8km/h 69% 0.00in /  0mm
09:30 83.1 °F /  28.4 °C 71.4 °F /  21.9 °C 29.98in /  1015.1hPa Calm   4.0mph /  6.4km/h 68% 0.00in /  0mm
09:35 83.9 °F /  28.8 °C 70.4 °F /  21.3 °C 29.98in /  1015.1hPa SW 5.0mph /  8km/h 5.0mph /  8km/h 64% 0.00in /  0mm
09:40 83.9 °F /  28.8 °C 70.4 °F /  21.3 °C 29.99in /  1015.5hPa West 5.0mph /  8km/h 8.0mph /  12.9km/h 64% 0.00in /  0mm
09:45 84.2 °F /  29 °C 70.2 °F /  21.2 °C 29.99in /  1015.5hPa West 4.0mph /  6.4km/h 6.0mph /  9.7km/h 63% 0.00in /  0mm
09:50 84.5 °F /  29.2 °C 71.0 °F /  21.7 °C 29.99in /  1015.5hPa SW 2.0mph /  3.2km/h 6.0mph /  9.7km/h 64% 0.00in /  0mm
09:55 85.0 °F /  29.4 °C 71.0 °F /  21.7 °C 29.98in /  1015.1hPa WSW 4.0mph /  6.4km/h 7.0mph /  11.3km/h 63% 0.00in /  0mm
10:00 85.4 °F /  29.7 °C 70.4 °F /  21.3 °C 29.99in /  1015.5hPa SSW 3.0mph /  4.8km/h 8.0mph /  12.9km/h 61% 0.00in /  0mm
10:05 85.8 °F /  29.9 °C 70.8 °F /  21.6 °C 29.99in /  1015.5hPa WSW 4.0mph /  6.4km/h 7.0mph /  11.3km/h 61% 0.00in /  0mm
10:10 86.1 °F /  30.1 °C 70.1 °F /  21.2 °C 29.98in /  1015.1hPa SW 3.0mph /  4.8km/h 6.0mph /  9.7km/h 59% 0.00in /  0mm
10:15 86.6 °F /  30.3 °C 70.1 °F /  21.2 °C 29.99in /  1015.5hPa West 7.0mph /  11.3km/h 8.0mph /  12.9km/h 58% 0.00in /  0mm
10:20 86.9 °F /  30.5 °C 70.4 °F /  21.3 °C 29.99in /  1015.5hPa West 3.0mph /  4.8km/h 7.0mph /  11.3km/h 58% 0.00in /  0mm
10:25 87.3 °F /  30.7 °C 70.7 °F /  21.5 °C 29.98in /  1015.1hPa West 1.0mph /  1.6km/h 8.0mph /  12.9km/h 58% 0.00in /  0mm
10:30 87.8 °F /  31 °C 70.2 °F /  21.2 °C 29.99in /  1015.5hPa WNW 3.0mph /  4.8km/h 9.0mph /  14.5km/h 56% 0.00in /  0mm
10:35 88.0 °F /  31.1 °C 69.8 °F /  21 °C 29.98in /  1015.1hPa West 4.0mph /  6.4km/h 8.0mph /  12.9km/h 55% 0.00in /  0mm
10:40 88.0 °F /  31.1 °C 70.3 °F /  21.3 °C 29.98in /  1015.1hPa West 4.0mph /  6.4km/h 8.0mph /  12.9km/h 56% 0.00in /  0mm
10:45 88.2 °F /  31.2 °C 70.0 °F /  21.1 °C 29.98in /  1015.1hPa West 4.0mph /  6.4km/h 6.0mph /  9.7km/h 55% 0.00in /  0mm
10:50 88.3 °F /  31.3 °C 69.6 °F /  20.9 °C 29.98in /  1015.1hPa WNW 6.0mph /  9.7km/h 11.0mph /  17.7km/h 54% 0.00in /  0mm
10:55 88.3 °F /  31.3 °C 69.6 °F /  20.9 °C 29.99in /  1015.5hPa SW 3.0mph /  4.8km/h 7.0mph /  11.3km/h 54% 0.00in /  0mm
11:00 88.7 °F /  31.5 °C 69.9 °F /  21.1 °C 29.99in /  1015.5hPa WNW 2.0mph /  3.2km/h 7.0mph /  11.3km/h 54% 0.00in /  0mm
11:05 88.8 °F /  31.6 °C 70.0 °F /  21.1 °C 29.99in /  1015.5hPa West 5.0mph /  8km/h 9.0mph /  14.5km/h 54% 0.00in /  0mm
11:10 88.8 °F /  31.6 °C 69.5 °F /  20.8 °C 29.98in /  1015.1hPa West 5.0mph /  8km/h 9.0mph /  14.5km/h 53% 0.00in /  0mm
11:15 88.9 °F /  31.6 °C 69.6 °F /  20.9 °C 29.98in /  1015.1hPa WNW 6.0mph /  9.7km/h 7.0mph /  11.3km/h 53% 0.00in /  0mm
11:20 89.2 °F /  31.8 °C 69.3 °F /  20.7 °C 29.98in /  1015.1hPa WNW 8.0mph /  12.9km/h 9.0mph /  14.5km/h 52% 0.00in /  0mm
11:25 89.2 °F /  31.8 °C 68.7 °F /  20.4 °C 29.98in /  1015.1hPa West 5.0mph /  8km/h 7.0mph /  11.3km/h 51% 0.00in /  0mm
11:30 89.5 °F /  31.9 °C 70.1 °F /  21.2 °C 29.98in /  1015.1hPa SSW 4.0mph /  6.4km/h 6.0mph /  9.7km/h 53% 0.00in /  0mm
11:35 90.1 °F /  32.3 °C 70.1 °F /  21.2 °C 29.98in /  1015.1hPa West 3.0mph /  4.8km/h 6.0mph /  9.7km/h 52% 0.00in /  0mm
11:40 89.8 °F /  32.1 °C 69.8 °F /  21 °C 29.97in /  1014.8hPa WNW 4.0mph /  6.4km/h 8.0mph /  12.9km/h 52% 0.00in /  0mm
11:45 90.4 °F /  32.4 °C 69.8 °F /  21 °C 29.98in /  1015.1hPa NW 6.0mph /  9.7km/h 8.0mph /  12.9km/h 51% 0.00in /  0mm
11:50 89.9 °F /  32.2 °C 69.9 °F /  21.1 °C 29.98in /  1015.1hPa Calm   4.0mph /  6.4km/h 52% 0.00in /  0mm
11:55 90.2 °F /  32.3 °C 69.1 °F /  20.6 °C 29.98in /  1015.1hPa WNW 6.0mph /  9.7km/h 7.0mph /  11.3km/h 50% 0.00in /  0mm
12:00 90.2 °F /  32.3 °C 68.5 °F /  20.3 °C 29.97in /  1014.8hPa West 2.0mph /  3.2km/h 9.0mph /  14.5km/h 49% 0.00in /  0mm
12:05 91.2 °F /  32.9 °C 69.4 °F /  20.8 °C 29.97in /  1014.8hPa SW 6.0mph /  9.7km/h 6.0mph /  9.7km/h 49% 0.00in /  0mm
12:10 92.3 °F /  33.5 °C 69.2 °F /  20.7 °C 29.97in /  1014.8hPa SW 6.0mph /  9.7km/h 6.0mph /  9.7km/h 47% 0.00in /  0mm
12:15 92.0 °F /  33.3 °C 67.6 °F /  19.8 °C 29.97in /  1014.8hPa WNW 5.0mph /  8km/h 7.0mph /  11.3km/h 45% 0.00in /  0mm
12:20 91.9 °F /  33.3 °C 67.5 °F /  19.7 °C 29.97in /  1014.8hPa WNW 5.0mph /  8km/h 9.0mph /  14.5km/h 45% 0.00in /  0mm
12:25 92.2 °F /  33.4 °C 67.2 °F /  19.6 °C 29.97in /  1014.8hPa SE 2.0mph /  3.2km/h 4.0mph /  6.4km/h 44% 0.00in /  0mm
12:30 92.7 °F /  33.7 °C 68.3 °F /  20.2 °C 29.97in /  1014.8hPa West 6.0mph /  9.7km/h 10.0mph /  16.1km/h 45% 0.00in /  0mm
12:35 92.2 °F /  33.4 °C 67.8 °F /  19.9 °C 29.97in /  1014.8hPa SW 1.0mph /  1.6km/h 10.0mph /  16.1km/h 45% 0.00in /  0mm
12:40 93.0 °F /  33.9 °C 67.9 °F /  19.9 °C 29.97in /  1014.8hPa West 3.0mph /  4.8km/h 6.0mph /  9.7km/h 44% 0.00in /  0mm
12:46 93.2 °F /  34 °C 68.1 °F /  20.1 °C 29.97in /  1014.8hPa WNW 5.0mph /  8km/h 10.0mph /  16.1km/h 44% 0.00in /  0mm
12:51 92.6 °F /  33.7 °C 67.5 °F /  19.7 °C 29.96in /  1014.4hPa NW 2.0mph /  3.2km/h 6.0mph /  9.7km/h 44% 0.00in /  0mm
12:56 93.2 °F /  34 °C 68.1 °F /  20.1 °C 29.97in /  1014.8hPa SW 9.0mph /  14.5km/h 13.0mph /  20.9km/h 44% 0.00in /  0mm
13:01 93.1 °F /  33.9 °C 67.3 °F /  19.6 °C 29.96in /  1014.4hPa WSW 8.0mph /  12.9km/h 8.0mph /  12.9km/h 43% 0.00in /  0mm
13:06 93.4 °F /  34.1 °C 66.9 °F /  19.4 °C 29.96in /  1014.4hPa SW 12.0mph /  19.3km/h 12.0mph /  19.3km/h 42% 0.00in /  0mm
13:11 93.4 °F /  34.1 °C 66.9 °F /  19.4 °C 29.96in /  1014.4hPa WSW 5.0mph /  8km/h 6.0mph /  9.7km/h 42% 0.00in /  0mm
13:16 93.7 °F /  34.3 °C 67.2 °F /  19.6 °C 29.95in /  1014.1hPa WSW 7.0mph /  11.3km/h 14.0mph /  22.5km/h 42% 0.00in /  0mm
13:21 94.4 °F /  34.7 °C 67.1 °F /  19.5 °C 29.95in /  1014.1hPa WNW 7.0mph /  11.3km/h 11.0mph /  17.7km/h 41% 0.00in /  0mm
13:26 94.0 °F /  34.4 °C 68.1 °F /  20.1 °C 29.95in /  1014.1hPa WNW 5.0mph /  8km/h 8.0mph /  12.9km/h 43% 0.00in /  0mm
13:31 94.4 °F /  34.7 °C 67.1 °F /  19.5 °C 29.95in /  1014.1hPa WSW 6.0mph /  9.7km/h 6.0mph /  9.7km/h 41% 0.00in /  0mm
13:36 94.6 °F /  34.8 °C 67.3 °F /  19.6 °C 29.95in /  1014.1hPa NW 3.0mph /  4.8km/h 10.0mph /  16.1km/h 41% 0.00in /  0mm
13:41 95.0 °F /  35 °C 66.9 °F /  19.4 °C 29.95in /  1014.1hPa SSW 6.0mph /  9.7km/h 9.0mph /  14.5km/h 40% 0.00in /  0mm
13:46 95.3 °F /  35.2 °C 67.9 °F /  19.9 °C 29.94in /  1013.8hPa WNW 9.0mph /  14.5km/h 11.0mph /  17.7km/h 41% 0.00in /  0mm
13:51 95.1 °F /  35.1 °C 65.5 °F /  18.6 °C 29.94in /  1013.8hPa WSW 1.0mph /  1.6km/h 9.0mph /  14.5km/h 38% 0.00in /  0mm
13:56 95.4 °F /  35.2 °C 65.8 °F /  18.8 °C 29.94in /  1013.8hPa WNW 3.0mph /  4.8km/h 9.0mph /  14.5km/h 38% 0.00in /  0mm
14:01 95.6 °F /  35.3 °C 66.7 °F /  19.3 °C 29.94in /  1013.8hPa WNW 7.0mph /  11.3km/h 10.0mph /  16.1km/h 39% 0.00in /  0mm
14:06 94.8 °F /  34.9 °C 66.7 °F /  19.3 °C 29.94in /  1013.8hPa WNW 6.0mph /  9.7km/h 8.0mph /  12.9km/h 40% 0.00in /  0mm
14:11 94.5 °F /  34.7 °C 66.5 °F /  19.2 °C 29.94in /  1013.8hPa WNW 2.0mph /  3.2km/h 10.0mph /  16.1km/h 40% 0.00in /  0mm
14:16 94.5 °F /  34.7 °C 66.5 °F /  19.2 °C 29.94in /  1013.8hPa NNW 7.0mph /  11.3km/h 10.0mph /  16.1km/h 40% 0.00in /  0mm
14:21 94.7 °F /  34.8 °C 66.6 °F /  19.2 °C 29.93in /  1013.4hPa West 9.0mph /  14.5km/h 9.0mph /  14.5km/h 40% 0.00in /  0mm
14:26 94.9 °F /  34.9 °C 66.8 °F /  19.3 °C 29.93in /  1013.4hPa SW 6.0mph /  9.7km/h 7.0mph /  11.3km/h 40% 0.00in /  0mm
14:31 95.2 °F /  35.1 °C 67.1 °F /  19.5 °C 29.93in /  1013.4hPa WSW 4.0mph /  6.4km/h 7.0mph /  11.3km/h 40% 0.00in /  0mm
14:36 94.8 °F /  34.9 °C 66.0 °F /  18.9 °C 29.93in /  1013.4hPa WNW 3.0mph /  4.8km/h 10.0mph /  16.1km/h 39% 0.00in /  0mm
14:42 93.8 °F /  34.3 °C 65.8 °F /  18.8 °C 29.93in /  1013.4hPa WNW 4.0mph /  6.4km/h 11.0mph /  17.7km/h 40% 0.00in /  0mm
14:47 93.3 °F /  34.1 °C 66.1 °F /  18.9 °C 29.93in /  1013.4hPa West 3.0mph /  4.8km/h 6.0mph /  9.7km/h 41% 0.00in /  0mm
14:52 93.1 °F /  33.9 °C 66.6 °F /  19.2 °C 29.93in /  1013.4hPa NW 1.0mph /  1.6km/h 3.0mph /  4.8km/h 42% 0.00in /  0mm
14:57 93.1 °F /  33.9 °C 65.9 °F /  18.8 °C 29.92in /  1013.1hPa WNW 2.0mph /  3.2km/h 5.0mph /  8km/h 41% 0.00in /  0mm
15:02 93.3 °F /  34.1 °C 66.8 °F /  19.3 °C 29.92in /  1013.1hPa West 1.0mph /  1.6km/h 3.0mph /  4.8km/h 42% 0.00in /  0mm
15:07 93.6 °F /  34.2 °C 65.7 °F /  18.7 °C 29.91in /  1012.8hPa Calm   3.0mph /  4.8km/h 40% 0.00in /  0mm
15:12 94.9 °F /  34.9 °C 66.1 °F /  18.9 °C 29.91in /  1012.8hPa WSW 4.0mph /  6.4km/h 9.0mph /  14.5km/h 39% 0.00in /  0mm
15:17 95.6 °F /  35.3 °C 65.2 °F /  18.4 °C 29.91in /  1012.8hPa SW 4.0mph /  6.4km/h 7.0mph /  11.3km/h 37% 0.00in /  0mm
15:22 95.5 °F /  35.3 °C 65.9 °F /  18.8 °C 29.91in /  1012.8hPa WSW 1.0mph /  1.6km/h 6.0mph /  9.7km/h 38% 0.00in /  0mm
15:27 95.4 °F /  35.2 °C 65.8 °F /  18.8 °C 29.91in /  1012.8hPa West 3.0mph /  4.8km/h 7.0mph /  11.3km/h 38% 0.00in /  0mm
15:32 95.8 °F /  35.4 °C 66.1 °F /  18.9 °C 29.90in /  1012.4hPa NNW 4.0mph /  6.4km/h 5.0mph /  8km/h 38% 0.00in /  0mm
15:37 96.3 °F /  35.7 °C 65.8 °F /  18.8 °C 29.90in /  1012.4hPa West 5.0mph /  8km/h 7.0mph /  11.3km/h 37% 0.00in /  0mm
15:42 97.1 °F /  36.2 °C 65.7 °F /  18.7 °C 29.89in /  1012.1hPa West 10.0mph /  16.1km/h 10.0mph /  16.1km/h 36% 0.00in /  0mm
15:47 97.2 °F /  36.2 °C 65.0 °F /  18.3 °C 29.89in /  1012.1hPa WNW 5.0mph /  8km/h 6.0mph /  9.7km/h 35% 0.00in /  0mm
15:52 97.4 °F /  36.3 °C 64.3 °F /  17.9 °C 29.89in /  1012.1hPa SW 9.0mph /  14.5km/h 11.0mph /  17.7km/h 34% 0.00in /  0mm
15:57 97.4 °F /  36.3 °C 66.0 °F /  18.9 °C 29.89in /  1012.1hPa WSW 5.0mph /  8km/h 11.0mph /  17.7km/h 36% 0.00in /  0mm
16:02 97.9 °F /  36.6 °C 64.8 °F /  18.2 °C 29.88in /  1011.7hPa West 3.0mph /  4.8km/h 9.0mph /  14.5km/h 34% 0.00in /  0mm
16:07 98.6 °F /  37 °C 66.2 °F /  19 °C 29.88in /  1011.7hPa West 5.0mph /  8km/h 7.0mph /  11.3km/h 35% 0.00in /  0mm
16:12 98.2 °F /  36.8 °C 64.2 °F /  17.9 °C 29.88in /  1011.7hPa NW 7.0mph /  11.3km/h 10.0mph /  16.1km/h 33% 0.00in /  0mm
16:17 98.5 °F /  36.9 °C 66.1 °F /  18.9 °C 29.88in /  1011.7hPa SSE 5.0mph /  8km/h 6.0mph /  9.7km/h 35% 0.00in /  0mm
16:22 98.8 °F /  37.1 °C 65.6 °F /  18.7 °C 29.88in /  1011.7hPa West 4.0mph /  6.4km/h 13.0mph /  20.9km/h 34% 0.00in /  0mm
16:27 98.0 °F /  36.7 °C 64.0 °F /  17.8 °C 29.88in /  1011.7hPa WNW 5.0mph /  8km/h 8.0mph /  12.9km/h 33% 0.00in /  0mm
16:32 97.4 °F /  36.3 °C 65.2 °F /  18.4 °C 29.88in /  1011.7hPa WNW 4.0mph /  6.4km/h 4.0mph /  6.4km/h 35% 0.00in /  0mm
16:37 97.4 °F /  36.3 °C 64.3 °F /  17.9 °C 29.88in /  1011.7hPa SSW 5.0mph /  8km/h 8.0mph /  12.9km/h 34% 0.00in /  0mm
16:42 97.8 °F /  36.6 °C 64.7 °F /  18.2 °C 29.88in /  1011.7hPa NW 4.0mph /  6.4km/h 8.0mph /  12.9km/h 34% 0.00in /  0mm
16:48 97.4 °F /  36.3 °C 65.2 °F /  18.4 °C 29.88in /  1011.7hPa NE 1.0mph /  1.6km/h 3.0mph /  4.8km/h 35% 0.00in /  0mm
16:53 96.8 °F /  36 °C 65.5 °F /  18.6 °C 29.88in /  1011.7hPa WNW 2.0mph /  3.2km/h 5.0mph /  8km/h 36% 0.00in /  0mm
16:58 96.1 °F /  35.6 °C 64.8 °F /  18.2 °C 29.88in /  1011.7hPa WSW 4.0mph /  6.4km/h 7.0mph /  11.3km/h 36% 0.00in /  0mm
17:03 95.5 °F /  35.3 °C 65.1 °F /  18.4 °C 29.88in /  1011.7hPa WNW 3.0mph /  4.8km/h 6.0mph /  9.7km/h 37% 0.00in /  0mm
17:08 93.8 °F /  34.3 °C 66.6 °F /  19.2 °C 29.88in /  1011.7hPa WNW 7.0mph /  11.3km/h 17.0mph /  27.4km/h 41% 0.00in /  0mm
17:13 90.7 °F /  32.6 °C 65.8 °F /  18.8 °C 29.88in /  1011.7hPa WSW 7.0mph /  11.3km/h 14.0mph /  22.5km/h 44% 0.00in /  0mm
17:18 89.8 °F /  32.1 °C 65.0 °F /  18.3 °C 29.88in /  1011.7hPa SW 7.0mph /  11.3km/h 12.0mph /  19.3km/h 44% 0.00in /  0mm
17:23 89.2 °F /  31.8 °C 64.5 °F /  18.1 °C 29.88in /  1011.7hPa WSW 9.0mph /  14.5km/h 12.0mph /  19.3km/h 44% 0.00in /  0mm
17:28 88.9 °F /  31.6 °C 65.5 °F /  18.6 °C 29.88in /  1011.7hPa WSW 5.0mph /  8km/h 8.0mph /  12.9km/h 46% 0.00in /  0mm
17:33 89.0 °F /  31.7 °C 64.9 °F /  18.3 °C 29.87in /  1011.4hPa SW 8.0mph /  12.9km/h 8.0mph /  12.9km/h 45% 0.00in /  0mm
17:38 89.7 °F /  32.1 °C 65.6 °F /  18.7 °C 29.87in /  1011.4hPa SW 9.0mph /  14.5km/h 9.0mph /  14.5km/h 45% 0.00in /  0mm
17:43 90.0 °F /  32.2 °C 65.8 °F /  18.8 °C 29.87in /  1011.4hPa South 7.0mph /  11.3km/h 9.0mph /  14.5km/h 45% 0.00in /  0mm
17:48 90.4 °F /  32.4 °C 65.5 °F /  18.6 °C 29.87in /  1011.4hPa SSW 2.0mph /  3.2km/h 8.0mph /  12.9km/h 44% 0.00in /  0mm
17:53 91.2 °F /  32.9 °C 65.6 °F /  18.7 °C 29.86in /  1011.1hPa SW 3.0mph /  4.8km/h 6.0mph /  9.7km/h 43% 0.00in /  0mm
17:58 91.3 °F /  32.9 °C 67.6 °F /  19.8 °C 29.86in /  1011.1hPa SE 7.0mph /  11.3km/h 10.0mph /  16.1km/h 46% 0.00in /  0mm
18:03 90.9 °F /  32.7 °C 67.9 °F /  19.9 °C 29.86in /  1011.1hPa SE 7.0mph /  11.3km/h 9.0mph /  14.5km/h 47% 0.00in /  0mm
18:08 91.2 °F /  32.9 °C 67.6 °F /  19.8 °C 29.85in /  1010.7hPa South 4.0mph /  6.4km/h 8.0mph /  12.9km/h 46% 0.00in /  0mm
18:13 92.5 °F /  33.6 °C 68.1 °F /  20.1 °C 29.86in /  1011.1hPa SSE 6.0mph /  9.7km/h 10.0mph /  16.1km/h 45% 0.00in /  0mm
18:18 93.5 °F /  34.2 °C 67.7 °F /  19.8 °C 29.85in /  1010.7hPa SSW 3.0mph /  4.8km/h 8.0mph /  12.9km/h 43% 0.00in /  0mm
18:23 93.3 °F /  34.1 °C 68.2 °F /  20.1 °C 29.85in /  1010.7hPa SW 9.0mph /  14.5km/h 11.0mph /  17.7km/h 44% 0.00in /  0mm
18:28 91.9 °F /  33.3 °C 68.2 °F /  20.1 °C 29.85in /  1010.7hPa SW 5.0mph /  8km/h 9.0mph /  14.5km/h 46% 0.00in /  0mm
18:33 90.9 °F /  32.7 °C 68.5 °F /  20.3 °C 29.86in /  1011.1hPa SW 8.0mph /  12.9km/h 8.0mph /  12.9km/h 48% 0.00in /  0mm
18:38 90.6 °F /  32.6 °C 68.8 °F /  20.4 °C 29.86in /  1011.1hPa SW 4.0mph /  6.4km/h 11.0mph /  17.7km/h 49% 0.00in /  0mm
18:43 90.3 °F /  32.4 °C 69.2 °F /  20.7 °C 29.85in /  1010.7hPa WSW 4.0mph /  6.4km/h 9.0mph /  14.5km/h 50% 0.00in /  0mm
18:48 90.0 °F /  32.2 °C 68.3 °F /  20.2 °C 29.86in /  1011.1hPa SSW 5.0mph /  8km/h 9.0mph /  14.5km/h 49% 0.00in /  0mm
18:53 90.2 °F /  32.3 °C 68.5 °F /  20.3 °C 29.86in /  1011.1hPa SSW 8.0mph /  12.9km/h 10.0mph /  16.1km/h 49% 0.00in /  0mm
18:58 90.4 °F /  32.4 °C 68.7 °F /  20.4 °C 29.86in /  1011.1hPa WSW 8.0mph /  12.9km/h 10.0mph /  16.1km/h 49% 0.00in /  0mm
19:03 90.7 °F /  32.6 °C 68.9 °F /  20.5 °C 29.86in /  1011.1hPa SW 8.0mph /  12.9km/h 10.0mph /  16.1km/h 49% 0.00in /  0mm
19:08 91.0 °F /  32.8 °C 68.6 °F /  20.3 °C 29.86in /  1011.1hPa WSW 5.0mph /  8km/h 9.0mph /  14.5km/h 48% 0.00in /  0mm
19:13 91.2 °F /  32.9 °C 67.6 °F /  19.8 °C 29.86in /  1011.1hPa SW 6.0mph /  9.7km/h 8.0mph /  12.9km/h 46% 0.00in /  0mm
19:18 91.3 °F /  32.9 °C 67.6 °F /  19.8 °C 29.87in /  1011.4hPa SW 7.0mph /  11.3km/h 9.0mph /  14.5km/h 46% 0.00in /  0mm
19:23 91.0 °F /  32.8 °C 67.4 °F /  19.7 °C 29.87in /  1011.4hPa SW 8.0mph /  12.9km/h 9.0mph /  14.5km/h 46% 0.00in /  0mm
19:28 90.9 °F /  32.7 °C 66.6 °F /  19.2 °C 29.86in /  1011.1hPa SSW 5.0mph /  8km/h 10.0mph /  16.1km/h 45% 0.00in /  0mm
19:33 90.8 °F /  32.7 °C 67.2 °F /  19.6 °C 29.87in /  1011.4hPa SW 7.0mph /  11.3km/h 9.0mph /  14.5km/h 46% 0.00in /  0mm
19:38 90.6 °F /  32.6 °C 67.6 °F /  19.8 °C 29.87in /  1011.4hPa SW 3.0mph /  4.8km/h 9.0mph /  14.5km/h 47% 0.00in /  0mm
19:43 90.6 °F /  32.6 °C 68.2 °F /  20.1 °C 29.87in /  1011.4hPa SW 7.0mph /  11.3km/h 7.0mph /  11.3km/h 48% 0.00in /  0mm
19:48 90.3 °F /  32.4 °C 68.0 °F /  20 °C 29.87in /  1011.4hPa SW 7.0mph /  11.3km/h 8.0mph /  12.9km/h 48% 0.00in /  0mm
19:53 90.1 °F /  32.3 °C 69.0 °F /  20.6 °C 29.87in /  1011.4hPa SW 5.0mph /  8km/h 8.0mph /  12.9km/h 50% 0.00in /  0mm
19:58 90.1 °F /  32.3 °C 69.0 °F /  20.6 °C 29.87in /  1011.4hPa SSW 6.0mph /  9.7km/h 9.0mph /  14.5km/h 50% 0.00in /  0mm
20:03 90.1 °F /  32.3 °C 68.4 °F /  20.2 °C 29.88in /  1011.7hPa SSW 7.0mph /  11.3km/h 11.0mph /  17.7km/h 49% 0.00in /  0mm
20:08 90.0 °F /  32.2 °C 68.3 °F /  20.2 °C 29.88in /  1011.7hPa SW 6.0mph /  9.7km/h 10.0mph /  16.1km/h 49% 0.00in /  0mm
20:13 89.9 °F /  32.2 °C 68.8 °F /  20.4 °C 29.88in /  1011.7hPa SSW 3.0mph /  4.8km/h 5.0mph /  8km/h 50% 0.00in /  0mm
20:18 89.5 °F /  31.9 °C 68.4 °F /  20.2 °C 29.87in /  1011.4hPa SW 5.0mph /  8km/h 6.0mph /  9.7km/h 50% 0.00in /  0mm
20:23 89.1 °F /  31.7 °C 68.6 °F /  20.3 °C 29.88in /  1011.7hPa SW 5.0mph /  8km/h 6.0mph /  9.7km/h 51% 0.00in /  0mm
20:28 88.6 °F /  31.4 °C 68.7 °F /  20.4 °C 29.88in /  1011.7hPa SW 4.0mph /  6.4km/h 9.0mph /  14.5km/h 52% 0.00in /  0mm
20:33 88.1 °F /  31.2 °C 68.8 °F /  20.4 °C 29.88in /  1011.7hPa WSW 4.0mph /  6.4km/h 8.0mph /  12.9km/h 53% 0.00in /  0mm
20:38 87.7 °F /  30.9 °C 69.0 °F /  20.6 °C 29.88in /  1011.7hPa SSW 5.0mph /  8km/h 7.0mph /  11.3km/h 54% 0.00in /  0mm
20:43 87.2 °F /  30.7 °C 69.1 °F /  20.6 °C 29.88in /  1011.7hPa WSW 4.0mph /  6.4km/h 11.0mph /  17.7km/h 55% 0.00in /  0mm
20:48 86.6 °F /  30.3 °C 69.6 °F /  20.9 °C 29.88in /  1011.7hPa WSW 6.0mph /  9.7km/h 9.0mph /  14.5km/h 57% 0.00in /  0mm
20:53 86.2 °F /  30.1 °C 69.7 °F /  20.9 °C 29.88in /  1011.7hPa SW 9.0mph /  14.5km/h 9.0mph /  14.5km/h 58% 0.00in /  0mm
20:59 85.6 °F /  29.8 °C 69.6 °F /  20.9 °C 29.88in /  1011.7hPa SW 6.0mph /  9.7km/h 12.0mph /  19.3km/h 59% 0.00in /  0mm
21:04 85.2 °F /  29.6 °C 69.8 °F /  21 °C 29.88in /  1011.7hPa SW 5.0mph /  8km/h 8.0mph /  12.9km/h 60% 0.00in /  0mm
21:08 84.8 °F /  29.3 °C 69.9 °F /  21.1 °C 29.88in /  1011.7hPa SW 7.0mph /  11.3km/h 8.0mph /  12.9km/h 61% 0.00in /  0mm
21:14 84.4 °F /  29.1 °C 70.0 °F /  21.1 °C 29.88in /  1011.7hPa SSW 3.0mph /  4.8km/h 8.0mph /  12.9km/h 62% 0.00in /  0mm
21:19 83.9 °F /  28.8 °C 70.0 °F /  21.1 °C 29.87in /  1011.4hPa SSE 4.0mph /  6.4km/h 7.0mph /  11.3km/h 63% 0.00in /  0mm
21:24 83.6 °F /  28.7 °C 70.1 °F /  21.2 °C 29.88in /  1011.7hPa SSW 3.0mph /  4.8km/h 6.0mph /  9.7km/h 64% 0.00in /  0mm
21:29 83.3 °F /  28.5 °C 70.3 °F /  21.3 °C 29.88in /  1011.7hPa SSW 2.0mph /  3.2km/h 6.0mph /  9.7km/h 65% 0.00in /  0mm
21:34 83.1 °F /  28.4 °C 70.1 °F /  21.2 °C 29.88in /  1011.7hPa SW 3.0mph /  4.8km/h 6.0mph /  9.7km/h 65% 0.00in /  0mm
21:39 83.0 °F /  28.3 °C 70.0 °F /  21.1 °C 29.88in /  1011.7hPa South 3.0mph /  4.8km/h 5.0mph /  8km/h 65% 0.00in /  0mm
21:44 82.7 °F /  28.2 °C 70.2 °F /  21.2 °C 29.89in /  1012.1hPa SE 3.0mph /  4.8km/h 4.0mph /  6.4km/h 66% 0.00in /  0mm
21:49 82.5 °F /  28.1 °C 70.0 °F /  21.1 °C 29.89in /  1012.1hPa East 4.0mph /  6.4km/h 6.0mph /  9.7km/h 66% 0.00in /  0mm
21:54 82.3 °F /  27.9 °C 70.3 °F /  21.3 °C 29.90in /  1012.4hPa ESE 4.0mph /  6.4km/h 5.0mph /  8km/h 67% 0.00in /  0mm
21:59 82.3 °F /  27.9 °C 70.3 °F /  21.3 °C 29.90in /  1012.4hPa ESE 4.0mph /  6.4km/h 4.0mph /  6.4km/h 67% 0.00in /  0mm
22:04 82.5 °F /  28.1 °C 70.0 °F /  21.1 °C 29.90in /  1012.4hPa SE 4.0mph /  6.4km/h 5.0mph /  8km/h 66% 0.00in /  0mm
22:09 82.8 °F /  28.2 °C 69.8 °F /  21 °C 29.90in /  1012.4hPa SE 4.0mph /  6.4km/h 5.0mph /  8km/h 65% 0.00in /  0mm
22:14 82.8 °F /  28.2 °C 69.8 °F /  21 °C 29.90in /  1012.4hPa ESE 6.0mph /  9.7km/h 6.0mph /  9.7km/h 65% 0.00in /  0mm
22:19 82.7 °F /  28.2 °C 69.8 °F /  21 °C 29.91in /  1012.8hPa SE 3.0mph /  4.8km/h 5.0mph /  8km/h 65% 0.00in /  0mm
22:24 82.5 °F /  28.1 °C 70.0 °F /  21.1 °C 29.91in /  1012.8hPa SE 3.0mph /  4.8km/h 8.0mph /  12.9km/h 66% 0.00in /  0mm
22:29 82.4 °F /  28 °C 69.9 °F /  21.1 °C 29.91in /  1012.8hPa ESE 4.0mph /  6.4km/h 5.0mph /  8km/h 66% 0.00in /  0mm
22:34 82.4 °F /  28 °C 69.9 °F /  21.1 °C 29.91in /  1012.8hPa SE 1.0mph /  1.6km/h 6.0mph /  9.7km/h 66% 0.00in /  0mm
22:39 82.4 °F /  28 °C 69.9 °F /  21.1 °C 29.91in /  1012.8hPa SE 1.0mph /  1.6km/h 4.0mph /  6.4km/h 66% 0.00in /  0mm
22:44 82.4 °F /  28 °C 69.9 °F /  21.1 °C 29.92in /  1013.1hPa East 2.0mph /  3.2km/h 2.0mph /  3.2km/h 66% 0.00in /  0mm
22:49 82.4 °F /  28 °C 69.9 °F /  21.1 °C 29.92in /  1013.1hPa Calm     66% 0.00in /  0mm
22:54 82.2 °F /  27.9 °C 70.2 °F /  21.2 °C 29.92in /  1013.1hPa SW 1.0mph /  1.6km/h 2.0mph /  3.2km/h 67% 0.00in /  0mm
22:59 81.9 °F /  27.7 °C 70.3 °F /  21.3 °C 29.92in /  1013.1hPa WSW 1.0mph /  1.6km/h 1.0mph /  1.6km/h 68% 0.00in /  0mm
23:04 81.7 °F /  27.6 °C 70.1 °F /  21.2 °C 29.92in /  1013.1hPa WSW 1.0mph /  1.6km/h 1.0mph /  1.6km/h 68% 0.00in /  0mm
23:09 81.7 °F /  27.6 °C 70.6 °F /  21.4 °C 29.92in /  1013.1hPa Calm   2.0mph /  3.2km/h 69% 0.00in /  0mm
23:14 81.3 °F /  27.4 °C 70.2 °F /  21.2 °C 29.92in /  1013.1hPa Calm   2.0mph /  3.2km/h 69% 0.00in /  0mm
23:19 81.1 °F /  27.3 °C 70.4 °F /  21.3 °C 29.92in /  1013.1hPa Calm   2.0mph /  3.2km/h 70% 0.00in /  0mm
23:24 80.9 °F /  27.2 °C 70.2 °F /  21.2 °C 29.92in /  1013.1hPa WSW 2.0mph /  3.2km/h 2.0mph /  3.2km/h 70% 0.00in /  0mm
23:29 81.0 °F /  27.2 °C 70.7 °F /  21.5 °C 29.92in /  1013.1hPa WSW 2.0mph /  3.2km/h 2.0mph /  3.2km/h 71% 0.00in /  0mm
23:34 81.0 °F /  27.2 °C 70.7 °F /  21.5 °C 29.92in /  1013.1hPa SW 2.0mph /  3.2km/h 3.0mph /  4.8km/h 71% 0.00in /  0mm
23:39 80.9 °F /  27.2 °C 70.6 °F /  21.4 °C 29.92in /  1013.1hPa SSW 2.0mph /  3.2km/h 4.0mph /  6.4km/h 71% 0.00in /  0mm
23:44 80.6 °F /  27 °C 70.3 °F /  21.3 °C 29.92in /  1013.1hPa South 3.0mph /  4.8km/h 3.0mph /  4.8km/h 71% 0.00in /  0mm
23:49 80.7 °F /  27.1 °C 70.4 °F /  21.3 °C 29.93in /  1013.4hPa SSE 2.0mph /  3.2km/h 3.0mph /  4.8km/h 71% 0.00in /  0mm
23:54 80.7 °F /  27.1 °C 70.4 °F /  21.3 °C 29.92in /  1013.1hPa South 1.0mph /  1.6km/h 2.0mph /  3.2km/h 71% 0.00in /  0mm
23:59 80.6 °F /  27 °C 70.3 °F /  21.3 °C 29.92in /  1013.1hPa Calm   1.0mph /  1.6km/h 71% 0.00in /  0mm
Compliments of Weather Underground